AIGUAFREDA (Vallès Oriental)





Hora UTC 09:50
Temperatura 27.6 ºC
Sòl 15 cm 31.6 ºC
Humitat 45.9 %
Pressió 1013.5 hPa
Pluja 0.0 mm
Velocitat vent 10.3 km/h
Direcció vent S
Radiació solar 693.7 W/m²

Dades diàries 2024-06-18



Hora UTC (hivern +1h; estiu +2h)
Temperatura (ºC) Humitat (%) Pressió (hPa) Velocitat vent (km/h) Precipitació (mm) Radiació solar (W/m²)
Hora UTC Aire Sòl 15 cm Humitat Pressió Vel. Dir. Vel. Max Dir. Intent. màx 5 min. Rad. Sol.
00:05 15.3 16.3 92.1 1015.3 0.0 NNE 0.0 NNE 0.0 0.2
00:10 15.3 16.2 92.2 1015.3 0.0 NNE 0.0 NNW 0.0 0.4
00:15 15.3 16.2 92.2 1015.3 0.0 NNE 0.0 NNW 0.0 0.3
00:20 15.2 16.1 92.1 1015.2 0.1 NNW 3.4 N 0.0 0.2
00:25 15.1 16.0 92.0 1015.2 0.0 NNE 0.0 NE 0.0 0.5
00:30 15.0 16.0 91.9 1015.1 0.0 NNE 0.0 NE 0.0 0.4
00:35 14.9 16.0 92.0 1015.0 0.0 NNE 0.0 NNW 0.0 0.3
00:40 15.0 16.0 92.3 1015.1 0.0 NNE 0.0 NNW 0.0 0.4
00:45 14.9 15.9 92.3 1015.0 0.0 NNE 0.0 NNW 0.0 0.8
00:50 14.9 15.9 92.4 1015.0 0.0 NNE 0.0 NNW 0.0 0.3
00:55 14.8 15.8 92.6 1014.8 0.0 NNE 0.0 NNW 0.0 1.1
01:00 14.8 15.8 92.7 1014.9 0.0 NNE 0.0 NNW 0.0 0.5
01:05 14.7 15.7 92.8 1014.9 0.0 NNE 0.0 NNW 0.0 0.4
01:10 14.6 15.6 92.9 1014.9 0.0 NNE 0.0 NNW 0.0 1.2
01:15 14.6 15.5 93.0 1014.8 0.0 NNE 0.0 NNW 0.0 0.4
01:20 14.5 15.5 93.1 1014.8 0.0 NNE 0.0 NNW 0.0 1.3
01:25 14.5 15.5 93.2 1014.8 0.0 NNE 0.0 NNW 0.0 0.3
01:30 14.5 15.4 93.3 1014.7 0.0 NNE 0.0 NNW 0.0 1.3
01:35 14.5 15.4 93.3 1014.6 0.0 NNE 0.0 N 0.0 0.6
01:40 14.5 15.4 93.2 1014.7 0.5 NNW 3.4 NNW 0.0 2.0
01:45 14.4 15.4 93.1 1014.7 0.6 N 6.1 NNE 0.0 0.6
01:50 14.4 15.3 93.0 1014.7 0.0 NNE 0.0 NW 0.0 1.7
01:55 14.3 15.2 93.0 1014.6 0.0 NNE 0.0 NW 0.0 0.7
02:00 14.3 15.2 93.2 1014.5 0.0 NNE 0.0 NW 0.0 1.5
02:05 14.3 15.3 93.4 1014.5 0.5 SSE 3.4 SSE 0.0 0.4
02:10 14.4 15.3 93.2 1014.4 0.0 NNE 0.0 WNW 0.0 1.1
02:15 14.3 15.2 93.2 1014.3 0.0 NW 3.4 NW 0.0 0.5
02:20 14.2 15.2 93.4 1014.2 0.0 NNE 0.0 NW 0.0 0.4
02:25 14.2 15.1 93.3 1014.2 0.0 NNE 0.0 NW 0.0 0.3
02:30 14.1 15.1 93.3 1014.2 0.0 NNE 0.0 NW 0.0 0.4
02:35 14.1 14.9 93.5 1014.1 0.0 NNE 0.0 NW 0.0 0.2
02:40 14.0 14.9 93.5 1014.1 0.5 SSE 3.4 SSE 0.0 0.7
02:45 14.1 14.9 93.7 1014.1 1.0 SSE 6.1 SSE 0.0 1.2
02:50 14.1 14.9 93.6 1014.1 0.0 NNE 0.0 SE 0.0 0.3
02:55 14.0 14.8 93.6 1014.1 0.0 NNE 0.0 SE 0.0 0.9
03:00 14.0 14.8 93.7 1014.1 0.0 NNE 0.0 SE 0.0 0.1
03:05 13.9 14.8 93.7 1014.1 0.0 NNE 0.0 SE 0.0 1.2
03:10 13.9 14.7 93.8 1014.1 0.0 NNE 0.0 SE 0.0 0.1
03:15 13.8 14.7 93.9 1014.0 0.0 NNE 0.0 SE 0.0 0.8
03:20 13.8 14.7 94.0 1014.0 0.0 NNE 0.0 SE 0.0 0.2
03:25 13.8 14.7 94.0 1014.2 0.0 NNE 0.0 SE 0.0 1.0
03:30 13.8 14.7 94.0 1014.2 0.0 NNE 0.0 SSE 0.0 0.3
03:35 13.8 14.7 94.1 1014.0 0.0 NNE 0.0 SE 0.0 0.7
03:40 13.8 14.6 94.2 1014.1 0.0 NNE 0.0 SE 0.0 0.4
03:45 13.8 14.7 94.3 1014.0 0.0 NNE 0.0 SE 0.0 0.5
03:50 13.7 14.6 94.2 1014.0 0.0 NNE 0.0 SE 0.0 0.5
03:55 13.7 14.6 94.3 1014.1 0.0 NNE 0.0 SSW 0.0 0.7
04:00 13.7 14.6 94.2 1014.0 0.0 NNE 0.0 WNW 0.0 0.6
04:05 13.6 14.6 94.1 1013.9 0.0 NNE 0.0 NW 0.0 1.3
04:10 13.6 14.6 94.3 1013.9 0.0 NNE 0.0 NW 0.0 1.7
04:15 13.6 14.6 94.3 1013.8 0.0 NNE 0.0 NW 0.0 1.4
04:20 13.6 14.6 94.4 1013.8 0.1 NNW 3.4 NNW 0.0 3.6
04:25 13.6 14.6 94.3 1013.8 0.0 NNE 0.0 NNW 0.0 1.3
04:30 13.6 14.5 94.2 1013.7 0.0 NNE 0.0 NNW 0.0 5.7
04:35 13.6 14.5 94.2 1013.7 0.0 NNE 0.0 NNW 0.0 2.2
04:40 13.6 14.6 94.4 1013.6 0.1 W 3.4 W 0.0 10.7
04:45 13.7 14.6 94.3 1013.7 0.0 SSE 3.4 SSE 0.0 3.1
04:50 13.7 14.7 94.3 1013.7 0.0 NNE 0.0 SSE 0.0 14.2
04:55 13.7 14.7 94.2 1013.6 0.0 NNE 0.0 SSE 0.0 11.0
05:00 13.7 14.7 94.3 1013.7 0.1 WNW 3.4 NW 0.0 19.4
05:05 13.7 14.8 94.2 1013.7 0.2 W 3.4 WSW 0.0 14.7
05:10 13.7 14.8 94.2 1013.7 0.0 NNE 0.0 WNW 0.0 23.7
05:15 13.8 14.8 94.3 1013.7 0.0 NNE 0.0 WNW 0.0 18.5
05:20 13.8 14.9 94.3 1013.8 0.0 NNE 0.0 WNW 0.0 26.0
05:25 13.9 14.9 94.3 1013.8 0.1 WNW 3.4 WNW 0.0 23.4
05:30 13.9 15.0 94.2 1013.8 0.2 ESE 3.4 WNW 0.0 30.3
05:35 14.0 15.1 94.1 1013.9 0.0 NNE 0.0 ESE 0.0 31.1
05:40 14.1 15.2 94.1 1013.9 0.0 NNE 0.0 NE 0.0 34.9
05:45 14.3 15.3 94.2 1014.0 0.0 NNE 0.0 NE 0.0 35.6
05:50 14.4 15.4 94.1 1014.0 0.0 NNE 0.0 NE 0.0 37.8
05:55 14.6 15.5 94.0 1014.1 0.0 NNE 0.0 NE 0.0 39.3
06:00 14.7 15.6 93.6 1014.1 0.4 SE 3.4 SE 0.0 41.8
06:05 14.8 15.8 93.4 1014.1 0.0 SE 3.4 SE 0.0 45.0
06:10 15.0 15.9 93.1 1014.2 0.3 SE 3.4 SE 0.0 47.4
06:15 15.2 16.0 92.7 1014.3 0.0 NNE 0.0 SE 0.0 50.8
06:20 15.4 16.2 92.4 1014.2 1.3 SE 6.1 SE 0.0 49.8
06:25 15.7 16.3 91.8 1014.2 0.7 SE 3.4 SE 0.0 99.6
06:30 15.9 16.4 90.8 1014.1 0.2 SE 3.4 SE 0.0 113.2
06:35 16.2 16.6 89.7 1014.2 1.8 SE 6.1 SE 0.0 219.8
06:40 16.6 16.7 88.1 1014.2 2.0 SE 6.1 SE 0.0 214.9
06:45 17.1 17.0 86.2 1014.1 2.8 SE 6.1 SE 0.0 297.0
06:50 17.7 17.4 83.9 1014.2 1.0 SE 6.1 SE 0.0 289.0
06:55 18.4 18.2 81.7 1014.0 1.7 SE 6.1 ESE 0.0 312.5
07:00 19.2 19.2 79.8 1014.1 1.2 SSE 6.1 SE 0.0 309.0
07:05 19.9 20.6 76.8 1014.1 2.3 WSW 8.8 WSW 0.0 159.7
07:10 20.7 22.2 74.4 1014.1 0.0 NNE 0.0 WSW 0.0 171.7
07:15 21.6 23.5 70.6 1014.0 1.9 SW 6.1 SW 0.0 320.0
07:20 22.1 24.4 67.9 1013.9 1.3 SW 6.1 SW 0.0 292.1
07:25 22.8 25.7 67.5 1013.9 0.4 S 3.4 SSW 0.0 408.4
07:30 23.1 26.0 66.1 1013.9 0.9 S 6.1 SSW 0.0 445.1
07:35 23.4 26.8 64.6 1013.8 3.6 ENE 8.8 ENE 0.0 459.9
07:40 23.7 26.7 63.3 1013.9 4.5 NE 11.5 NNE 0.0 447.2
07:45 23.9 26.6 61.5 1013.7 5.5 NE 11.5 NNE 0.0 493.6
07:50 24.0 26.7 60.2 1013.5 7.1 NNE 14.2 NNE 0.0 508.6
07:55 24.0 26.6 60.9 1013.5 3.7 ENE 8.8 NE 0.0 515.7
08:00 24.3 27.3 59.2 1013.6 2.8 SSW 6.1 S 0.0 518.2
08:05 24.5 27.8 57.0 1013.6 2.9 SE 14.2 E 0.0 519.3
08:10 24.9 28.7 55.2 1013.5 1.1 SE 6.1 SE 0.0 533.1
08:15 25.1 28.8 53.2 1013.5 4.7 NE 8.8 NE 0.0 538.7
08:20 25.1 29.2 53.2 1013.8 2.7 NE 8.8 ENE 0.0 550.6
08:25 25.4 29.3 51.8 1013.6 3.8 E 8.8 E 0.0 557.7
08:30 25.5 29.9 50.6 1013.4 3.7 NNE 8.8 NNE 0.0 566.9
08:35 25.7 30.2 50.6 1013.5 2.8 NW 8.8 NW 0.0 584.4
08:40 26.2 30.5 50.7 1013.6 3.0 SE 6.1 NE 0.0 596.0
08:45 26.5 31.1 50.6 1013.6 1.9 ESE 6.1 SE 0.0 608.9
08:50 26.6 31.3 50.0 1013.5 2.7 SE 6.1 NNE 0.0 617.3
08:55 26.5 31.5 49.3 1013.4 2.6 S 6.1 SSE 0.0 629.0
09:00 27.0 32.1 48.1 1013.2 2.3 S 8.8 SW 0.0 651.8
09:05 27.0 32.4 45.3 1013.4 1.2 WNW 6.1 WSW 0.0 668.3
09:10 26.9 32.8 46.5 1013.3 3.4 WNW 8.8 W 0.0 702.9
09:15 27.3 32.7 46.0 1013.2 3.6 SW 11.5 SW 0.0 674.9
09:20 27.8 33.0 44.6 1013.3 4.1 SSW 14.2 S 0.0 576.8
09:25 27.8 32.5 44.1 1013.5 8.1 SSW 16.9 SSW 0.0 693.6
09:30 27.8 32.1 44.6 1013.4 9.7 SSE 22.3 SSE 0.0 634.8
09:35 27.5 31.2 45.0 1013.5 13.8 SSE 22.3 SSE 0.0 590.9
09:40 27.2 31.1 45.8 1013.5 11.2 SSE 22.3 SSE 0.0 652.3
09:45 27.5 31.4 45.5 1013.4 12.9 SSE 27.7 S 0.0 658.3
09:50 27.6 31.6 45.9 1013.5 10.3 S 19.6 SSE 0.0 693.7
Màxima 27.9 33.0 94.4 1015.3 13.8 SSE 27.7 S 0.0 702.9
Mínima 13.6 14.5 44.1 1013.2
Total 0.0